createdAt,value
2023-03-14T00:01:59.222Z,8.85
2023-03-14T00:04:30.914Z,8.38
2023-03-14T00:06:59.749Z,8.82
2023-03-14T00:09:28.362Z,10.13
2023-03-14T00:11:58.330Z,9.23
2023-03-14T00:14:26.577Z,9.23
2023-03-14T00:16:55.188Z,8.02
2023-03-14T00:19:24.392Z,8.00
2023-03-14T00:21:53.048Z,11.13
2023-03-14T00:24:21.474Z,10.07
2023-03-14T00:26:50.114Z,9.70
2023-03-14T00:29:18.457Z,7.93
2023-03-14T00:31:47.684Z,9.13
2023-03-14T00:34:16.202Z,9.18
2023-03-14T00:36:46.052Z,8.45
2023-03-14T00:39:15.058Z,8.35
2023-03-14T00:41:44.348Z,8.57
2023-03-14T00:44:12.699Z,8.57
2023-03-14T00:46:45.415Z,8.93
2023-03-14T00:49:14.118Z,9.07
2023-03-14T00:51:43.635Z,9.25
2023-03-14T00:54:13.754Z,8.13
2023-03-14T00:56:42.674Z,8.40
2023-03-14T00:59:11.293Z,8.93
2023-03-14T01:01:41.231Z,7.90
2023-03-14T01:04:09.882Z,10.00
2023-03-14T01:06:40.194Z,8.70
2023-03-14T01:09:18.982Z,7.05
2023-03-14T01:11:50.073Z,8.25
2023-03-14T01:14:19.267Z,10.30
2023-03-14T01:16:47.878Z,7.35
2023-03-14T01:19:16.570Z,8.70
2023-03-14T01:21:46.646Z,6.63
2023-03-14T01:24:17.479Z,8.95
2023-03-14T01:26:47.148Z,8.07
2023-03-14T01:29:17.251Z,8.95
2023-03-14T01:31:46.383Z,7.75
2023-03-14T01:34:14.942Z,7.82
2023-03-14T01:36:44.806Z,10.48
2023-03-14T01:39:14.434Z,9.07
2023-03-14T01:41:43.705Z,7.05
2023-03-14T01:44:13.626Z,9.40
2023-03-14T01:46:50.173Z,7.97
2023-03-14T01:49:33.967Z,9.18
2023-03-14T01:52:17.655Z,6.63
2023-03-14T01:55:17.111Z,6.35
2023-03-14T01:57:51.416Z,6.70
2023-03-14T02:00:24.050Z,5.03
2023-03-14T02:03:07.038Z,9.75
2023-03-14T02:05:40.075Z,5.07
2023-03-14T02:08:16.290Z,7.95
2023-03-14T02:10:57.166Z,4.25
2023-03-14T02:13:41.274Z,3.42
2023-03-14T02:16:38.759Z,4.57
2023-03-14T02:19:58.941Z,4.45
2023-03-14T02:22:43.181Z,3.45
2023-03-14T02:25:29.611Z,4.95
2023-03-14T02:27:59.658Z,2.60
2023-03-14T02:30:32.683Z,3.50
2023-03-14T02:33:06.497Z,3.25
2023-03-14T02:35:54.668Z,2.42
2023-03-14T02:38:37.069Z,4.45
2023-03-14T02:41:07.823Z,4.53
2023-03-14T02:44:06.743Z,1.50
2023-03-14T02:46:37.663Z,3.38
2023-03-14T02:49:09.807Z,2.45
2023-03-14T02:51:41.097Z,2.15
2023-03-14T02:54:09.688Z,2.42
2023-03-14T02:56:39.869Z,3.25
2023-03-14T02:59:10.788Z,2.40
2023-03-14T03:01:46.485Z,2.10
2023-03-14T03:04:14.731Z,1.90
2023-03-14T03:06:43.763Z,2.63
2023-03-14T03:09:12.421Z,2.50
2023-03-14T03:11:41.202Z,9.98
2023-03-14T03:14:11.845Z,2.80
2023-03-14T03:16:40.930Z,2.28
2023-03-14T03:19:09.594Z,1.98
2023-03-14T03:21:38.289Z,3.95
2023-03-14T03:24:08.146Z,1.90
2023-03-14T03:26:37.920Z,2.30
2023-03-14T03:29:08.629Z,4.47
2023-03-14T03:31:40.691Z,1.52
2023-03-14T03:34:09.066Z,3.50
2023-03-14T03:36:47.664Z,3.13
2023-03-14T03:39:16.190Z,9.40
2023-03-14T03:41:45.280Z,3.90
2023-03-14T03:44:14.807Z,4.47
2023-03-14T03:46:43.994Z,6.43
2023-03-14T03:49:13.292Z,3.03
2023-03-14T03:51:42.304Z,5.28
2023-03-14T03:54:11.285Z,1.90
2023-03-14T03:56:40.961Z,2.50
2023-03-14T03:59:09.426Z,1.98
2023-03-14T04:01:38.460Z,2.25
2023-03-14T04:04:07.126Z,2.55
2023-03-14T04:06:36.268Z,1.50
2023-03-14T04:09:06.561Z,2.10
2023-03-14T04:11:58.856Z,7.32
2023-03-14T04:14:39.577Z,5.68
2023-03-14T04:17:19.792Z,9.50
2023-03-14T04:19:52.007Z,4.93
2023-03-14T04:22:22.630Z,2.90
2023-03-14T04:24:53.223Z,4.03
2023-03-14T04:27:23.764Z,3.35
2023-03-14T04:29:52.388Z,2.35
2023-03-14T04:32:29.149Z,3.22
2023-03-14T04:34:59.333Z,3.20
2023-03-14T04:37:28.716Z,2.25
2023-03-14T04:39:58.713Z,3.08
2023-03-14T04:42:34.641Z,3.75
2023-03-14T04:45:03.453Z,4.47
2023-03-14T04:47:34.205Z,3.58
2023-03-14T04:50:04.364Z,6.75
2023-03-14T04:53:00.529Z,3.67
2023-03-14T04:58:00.261Z,4.90
2023-03-14T05:00:29.637Z,4.40
2023-03-14T05:03:20.829Z,6.20
2023-03-14T05:06:08.092Z,4.35
2023-03-14T05:08:43.733Z,6.22
2023-03-14T05:11:38.694Z,3.80
2023-03-14T05:14:18.542Z,5.05
2023-03-14T05:17:23.092Z,5.43
2023-03-14T05:20:20.355Z,7.88
2023-03-14T05:23:02.324Z,5.78
2023-03-14T05:25:53.576Z,6.13
2023-03-14T05:28:45.132Z,5.22
2023-03-14T05:31:36.392Z,6.07
2023-03-14T05:34:08.327Z,4.72
2023-03-14T05:36:48.299Z,6.10
2023-03-14T05:39:36.829Z,6.88
2023-03-14T05:42:28.342Z,6.43
2023-03-14T05:45:08.094Z,6.10
2023-03-14T05:47:55.543Z,5.38
2023-03-14T05:51:17.827Z,6.82
2023-03-14T05:54:09.393Z,6.00
2023-03-14T05:57:10.082Z,7.40
2023-03-14T05:59:57.875Z,6.85
2023-03-14T06:02:41.006Z,7.50
2023-03-14T06:05:20.673Z,6.25
2023-03-14T06:07:49.871Z,7.95
2023-03-14T06:10:18.632Z,6.10
2023-03-14T06:12:46.915Z,5.18
2023-03-14T06:15:16.001Z,9.35
2023-03-14T06:17:47.181Z,6.03
2023-03-14T06:23:09.985Z,6.07
2023-03-14T06:25:39.252Z,8.02
2023-03-14T06:28:32.883Z,7.32
2023-03-14T06:31:05.390Z,9.43
2023-03-14T06:33:40.686Z,6.05
2023-03-14T06:36:10.806Z,6.82
2023-03-14T06:38:41.959Z,8.45
2023-03-14T06:41:11.337Z,5.82
2023-03-14T06:43:43.397Z,9.63
2023-03-14T06:46:12.536Z,5.35
2023-03-14T06:48:42.927Z,6.32
2023-03-14T06:51:11.966Z,8.02
2023-03-14T06:53:40.716Z,6.65
2023-03-14T06:56:13.195Z,7.28
2023-03-14T06:58:41.754Z,6.07
2023-03-14T07:01:25.677Z,6.17
2023-03-14T07:03:55.882Z,7.43
2023-03-14T07:06:26.353Z,8.00
2023-03-14T07:09:13.573Z,10.05
2023-03-14T07:11:47.152Z,7.88
2023-03-14T07:14:17.016Z,9.45
2023-03-14T07:16:46.371Z,8.18
2023-03-14T07:19:14.794Z,7.22
2023-03-14T07:21:43.621Z,8.23
2023-03-14T07:24:14.723Z,7.03
2023-03-14T07:26:43.522Z,6.38
2023-03-14T07:29:12.606Z,7.68
2023-03-14T07:31:43.169Z,8.45
2023-03-14T07:34:11.919Z,7.20
2023-03-14T07:36:44.798Z,8.45
2023-03-14T07:39:13.275Z,10.85
2023-03-14T07:42:02.536Z,10.20
2023-03-14T07:44:34.141Z,9.82
2023-03-14T07:47:02.806Z,9.30
2023-03-14T07:49:31.631Z,7.78
2023-03-14T07:52:00.302Z,8.13
2023-03-14T07:54:28.911Z,7.35
2023-03-14T07:56:59.929Z,7.57
2023-03-14T07:59:29.042Z,7.60
2023-03-14T08:01:57.682Z,7.70
2023-03-14T08:04:26.093Z,10.40
2023-03-14T08:06:55.948Z,6.97
2023-03-14T08:09:24.459Z,8.55
2023-03-14T08:11:54.845Z,8.32
2023-03-14T08:14:25.209Z,5.35
2023-03-14T08:16:53.867Z,5.30
2023-03-14T08:19:22.310Z,8.13
2023-03-14T08:21:50.936Z,5.30
2023-03-14T08:24:19.584Z,5.78
2023-03-14T08:26:48.414Z,6.43
2023-03-14T08:29:16.678Z,7.03
2023-03-14T08:31:45.784Z,6.47
2023-03-14T08:34:14.430Z,6.90
2023-03-14T08:36:43.612Z,5.32
2023-03-14T08:39:12.012Z,5.80
2023-03-14T08:41:45.128Z,4.85
2023-03-14T08:44:13.617Z,5.57
2023-03-14T08:46:42.819Z,4.88
2023-03-14T08:49:11.165Z,5.22
2023-03-14T08:51:40.005Z,6.20
2023-03-14T08:54:11.452Z,4.40
2023-03-14T08:56:40.078Z,5.10
2023-03-14T08:59:09.714Z,4.13
2023-03-14T09:01:38.421Z,6.30
2023-03-14T09:04:07.832Z,4.82
2023-03-14T09:06:36.959Z,2.50
2023-03-14T09:09:05.460Z,3.28
2023-03-14T09:11:34.415Z,6.47
2023-03-14T09:14:02.750Z,5.05
2023-03-14T09:16:31.484Z,3.40
2023-03-14T09:19:00.866Z,5.18
2023-03-14T09:21:29.999Z,4.70
2023-03-14T09:23:58.337Z,4.57
2023-03-14T09:26:28.061Z,4.45
2023-03-14T09:28:58.569Z,4.18
2023-03-14T09:31:28.469Z,4.70
2023-03-14T09:33:57.091Z,3.35
2023-03-14T09:36:25.738Z,4.85
2023-03-14T09:38:54.158Z,3.60
2023-03-14T09:41:28.950Z,3.70
2023-03-14T09:44:08.044Z,2.95
2023-03-14T09:46:39.444Z,3.90
2023-03-14T09:49:29.864Z,3.30
2023-03-14T09:52:04.144Z,3.58
2023-03-14T09:54:37.356Z,3.88
2023-03-14T09:57:12.152Z,5.75
2023-03-14T09:59:41.513Z,5.85
2023-03-14T10:02:22.860Z,4.53
2023-03-14T10:04:54.163Z,5.60
2023-03-14T10:07:30.906Z,7.25
2023-03-14T10:10:00.243Z,5.65
2023-03-14T10:12:36.482Z,4.45
2023-03-14T10:15:19.469Z,5.43
2023-03-14T10:17:49.918Z,4.10
2023-03-14T10:20:36.396Z,4.78
2023-03-14T10:23:24.012Z,5.57
2023-03-14T10:26:10.022Z,5.68
2023-03-14T10:28:48.850Z,4.38
2023-03-14T10:31:17.274Z,5.78
2023-03-14T10:34:03.405Z,4.10
2023-03-14T10:36:34.108Z,3.95
2023-03-14T10:39:43.776Z,3.15
2023-03-14T10:42:23.177Z,3.35
2023-03-14T10:45:31.467Z,3.35
2023-03-14T10:48:20.903Z,4.28
2023-03-14T10:50:58.404Z,3.92
2023-03-14T10:53:28.226Z,4.32
2023-03-14T10:55:57.297Z,3.20
2023-03-14T10:58:32.609Z,3.42
2023-03-14T11:01:16.228Z,4.70
2023-03-14T11:03:53.623Z,4.85
2023-03-14T11:06:41.534Z,4.20
2023-03-14T11:09:23.357Z,4.53
2023-03-14T11:11:52.073Z,2.92
2023-03-14T11:14:46.647Z,4.68
2023-03-14T11:17:44.668Z,2.05
2023-03-14T11:21:10.271Z,3.53
2023-03-14T11:24:17.606Z,4.28
2023-03-14T11:26:58.844Z,5.07
2023-03-14T11:30:01.981Z,3.67
2023-03-14T11:32:44.278Z,3.70
2023-03-14T11:35:27.818Z,4.78
2023-03-14T11:38:05.762Z,3.72
2023-03-14T11:40:36.232Z,5.68
2023-03-14T11:43:16.603Z,4.15
2023-03-14T11:45:46.526Z,4.93
2023-03-14T11:48:21.906Z,3.58
2023-03-14T11:51:40.397Z,5.40
2023-03-14T11:54:17.041Z,5.18
2023-03-14T11:57:11.359Z,4.22
2023-03-14T12:00:02.133Z,5.47
2023-03-14T12:02:57.322Z,4.13
2023-03-14T12:06:13.372Z,6.18
2023-03-14T12:08:52.149Z,4.00
2023-03-14T12:11:42.967Z,6.78
2023-03-14T12:14:31.134Z,5.03
2023-03-14T12:17:24.435Z,4.18
2023-03-14T12:20:27.546Z,4.03
2023-03-14T12:23:03.151Z,4.28
2023-03-14T12:25:33.723Z,5.78
2023-03-14T12:28:16.572Z,3.63
2023-03-14T12:30:45.541Z,5.38
2023-03-14T12:33:19.095Z,4.70
2023-03-14T12:36:01.692Z,3.25
2023-03-14T12:39:05.298Z,6.13
2023-03-14T12:41:47.740Z,5.28
2023-03-14T12:44:54.275Z,5.72
2023-03-14T12:47:22.839Z,4.35
2023-03-14T12:49:56.436Z,6.47
2023-03-14T12:52:56.000Z,5.82
2023-03-14T12:56:01.654Z,3.88
2023-03-14T12:58:46.942Z,5.43
2023-03-14T13:01:20.568Z,4.03
2023-03-14T13:03:56.324Z,3.63
2023-03-14T13:06:55.348Z,3.38
2023-03-14T13:09:27.374Z,4.03
2023-03-14T13:11:57.854Z,5.22
2023-03-14T13:14:29.665Z,7.47
2023-03-14T13:17:10.470Z,5.10
2023-03-14T13:19:54.869Z,6.90
2023-03-14T13:22:29.845Z,6.40
2023-03-14T13:25:04.662Z,5.60
2023-03-14T13:27:36.530Z,5.97
2023-03-14T13:30:15.017Z,7.13
2023-03-14T13:32:47.022Z,5.88
2023-03-14T13:35:41.312Z,5.35
2023-03-14T13:38:22.028Z,3.03
2023-03-14T13:40:53.345Z,5.70
2023-03-14T13:43:39.911Z,4.22
2023-03-14T13:46:15.707Z,5.22
2023-03-14T13:49:01.476Z,4.40
2023-03-14T13:51:33.843Z,3.80
2023-03-14T13:56:34.221Z,5.88
2023-03-14T13:59:03.143Z,5.05
2023-03-14T14:01:39.482Z,4.32
2023-03-14T14:04:10.826Z,4.78
2023-03-14T14:06:49.391Z,4.72
2023-03-14T14:09:24.452Z,6.78
2023-03-14T14:12:17.754Z,4.57
2023-03-14T14:14:54.767Z,6.15
2023-03-14T14:17:31.262Z,4.72
2023-03-14T14:20:04.441Z,6.18
2023-03-14T14:22:35.987Z,3.55
2023-03-14T14:25:05.203Z,5.13
2023-03-14T14:27:53.558Z,6.53
2023-03-14T14:30:26.704Z,7.75
2023-03-14T14:33:12.828Z,4.25
2023-03-14T14:35:52.397Z,6.53
2023-03-14T14:38:36.140Z,6.18
2023-03-14T14:41:15.663Z,7.50
2023-03-14T14:53:10.790Z,6.15
2023-03-14T14:55:50.325Z,6.00
2023-03-14T14:58:26.787Z,5.25
2023-03-14T15:01:53.462Z,5.47
2023-03-14T15:31:27.103Z,1.83
2023-03-14T15:34:26.382Z,2.42
2023-03-14T15:36:57.309Z,3.47
2023-03-14T15:39:32.170Z,4.13
2023-03-14T15:42:04.279Z,5.88
2023-03-14T15:44:32.936Z,3.83
2023-03-14T15:47:04.416Z,8.48
2023-03-14T15:49:34.829Z,5.82
2023-03-14T15:52:03.670Z,5.22
2023-03-14T15:54:39.656Z,5.35
2023-03-14T15:57:14.097Z,4.82
2023-03-14T16:02:13.189Z,3.28
2023-03-14T16:04:42.036Z,3.85
2023-03-14T16:07:39.544Z,3.78
2023-03-14T16:10:16.746Z,4.93
2023-03-14T16:13:41.385Z,3.80
2023-03-14T16:22:53.085Z,5.80
2023-03-14T16:25:23.737Z,6.53
2023-03-14T16:28:08.429Z,6.50
2023-03-14T16:30:39.032Z,7.03
2023-03-14T16:33:12.435Z,9.38
2023-03-14T16:35:42.110Z,9.77
2023-03-14T16:38:13.235Z,5.95
2023-03-14T16:40:44.295Z,7.13
2023-03-14T16:43:16.559Z,6.30
2023-03-14T16:45:48.945Z,8.27
2023-03-14T16:48:21.708Z,6.40
2023-03-14T16:50:58.021Z,8.63
2023-03-14T16:53:29.343Z,4.68
2023-03-14T16:56:00.291Z,8.60
2023-03-14T16:58:31.841Z,6.78
2023-03-14T17:01:10.025Z,4.45
2023-03-14T17:03:47.089Z,4.25
2023-03-14T17:06:24.318Z,6.55
2023-03-14T17:08:55.379Z,6.57
2023-03-14T17:11:26.564Z,5.55
2023-03-14T17:14:00.914Z,9.43
2023-03-14T17:16:30.123Z,5.05
2023-03-14T17:18:59.056Z,4.65
2023-03-14T17:21:30.397Z,6.18
2023-03-14T17:24:00.216Z,7.20
2023-03-14T17:30:41.613Z,6.50
2023-03-14T17:33:13.195Z,5.22
2023-03-14T17:36:15.573Z,5.60
2023-03-14T17:38:44.597Z,7.68
2023-03-14T17:41:15.758Z,7.68
2023-03-14T17:43:44.351Z,9.43
2023-03-14T17:46:15.223Z,9.98
2023-03-14T17:48:48.941Z,8.43
2023-03-14T17:51:18.151Z,6.82
2023-03-14T17:53:50.476Z,5.38
2023-03-14T17:59:22.239Z,5.15
2023-03-14T18:02:01.383Z,6.00
2023-03-14T18:04:32.477Z,6.05
2023-03-14T18:07:04.620Z,7.18
2023-03-14T18:09:33.425Z,6.43
2023-03-14T18:12:07.978Z,8.00
2023-03-14T18:14:45.772Z,8.60
2023-03-14T18:17:15.656Z,7.20
2023-03-14T18:19:46.501Z,7.47
2023-03-14T18:22:20.275Z,12.90
2023-03-14T18:24:48.928Z,7.63
2023-03-14T18:27:18.283Z,7.47
2023-03-14T18:29:57.630Z,7.20
2023-03-14T18:32:26.612Z,6.53
2023-03-14T18:34:55.492Z,8.05
2023-03-14T18:37:24.488Z,7.82
2023-03-14T18:39:52.925Z,7.55
2023-03-14T18:42:22.856Z,8.77
2023-03-14T19:22:16.343Z,11.98
2023-03-14T19:24:51.596Z,12.45
2023-03-14T19:27:23.040Z,10.90
2023-03-14T19:30:26.990Z,15.73
2023-03-14T19:32:58.654Z,11.63
2023-03-14T19:35:27.165Z,12.93
2023-03-14T19:37:59.750Z,13.52
2023-03-14T19:40:31.631Z,13.35
2023-03-14T19:52:04.894Z,14.20
2023-03-14T19:59:30.812Z,13.05
2023-03-14T20:02:06.969Z,12.95
2023-03-14T20:04:41.072Z,11.18
2023-03-14T20:08:52.453Z,11.38
2023-03-14T20:10:43.153Z,13.35
2023-03-14T20:21:20.429Z,16.80
2023-03-14T20:44:38.474Z,3.45
2023-03-14T20:47:07.205Z,2.50
2023-03-14T20:49:36.099Z,1.55
2023-03-14T20:52:08.778Z,1.33
2023-03-14T20:57:07.326Z,0.95
2023-03-14T20:59:39.295Z,0.65
2023-03-14T21:05:08.168Z,1.70
2023-03-14T21:07:54.335Z,2.08
2023-03-14T21:10:25.495Z,1.88
2023-03-14T21:12:54.641Z,2.60
2023-03-14T21:15:31.337Z,2.22
2023-03-14T21:18:08.494Z,3.13
2023-03-14T21:20:39.195Z,1.10
2023-03-14T21:23:09.492Z,1.98
2023-03-14T21:26:52.704Z,1.42
2023-03-14T21:30:14.027Z,1.55
2023-03-14T21:32:43.421Z,1.13
2023-03-14T21:35:14.912Z,3.28
2023-03-14T21:37:47.805Z,1.00
2023-03-14T21:40:18.901Z,2.85
2023-03-14T21:46:29.812Z,2.38
2023-03-14T21:49:05.382Z,5.18
2023-03-14T21:51:44.095Z,1.35
2023-03-14T21:54:47.591Z,2.50
2023-03-14T21:57:50.089Z,2.08
2023-03-14T22:00:50.639Z,1.67
2023-03-14T22:03:25.037Z,2.40
2023-03-14T22:06:04.419Z,17.92
2023-03-14T22:08:58.603Z,14.05
2023-03-14T22:11:29.149Z,5.50
2023-03-14T22:14:08.493Z,4.28
2023-03-14T22:16:41.965Z,2.47
2023-03-14T22:19:12.092Z,2.85
2023-03-14T22:21:43.846Z,1.55
2023-03-14T22:24:27.140Z,2.92
2023-03-14T22:27:07.728Z,3.25
2023-03-14T22:29:38.278Z,21.55
2023-03-14T22:32:39.022Z,11.77
2023-03-14T22:35:01.135Z,4.97
2023-03-14T22:37:39.284Z,7.05
2023-03-14T22:40:12.707Z,5.10
2023-03-14T22:42:46.222Z,5.32
2023-03-14T22:45:16.273Z,7.38
2023-03-14T22:47:44.916Z,8.95
2023-03-14T22:50:18.344Z,7.10
2023-03-14T22:52:46.674Z,9.82
2023-03-14T22:55:15.653Z,9.45
2023-03-14T22:57:44.153Z,7.75
2023-03-14T23:00:17.045Z,5.82
2023-03-14T23:02:45.933Z,4.90
2023-03-14T23:05:15.940Z,6.00
2023-03-14T23:07:44.736Z,10.52
2023-03-14T23:11:02.111Z,15.75
2023-03-14T23:13:31.531Z,5.05
2023-03-14T23:16:02.673Z,4.50
2023-03-14T23:18:31.349Z,5.60
2023-03-14T23:21:16.448Z,5.20
2023-03-14T23:23:48.177Z,1.85
2023-03-14T23:28:52.068Z,6.15
2023-03-14T23:31:26.018Z,1.80
2023-03-14T23:33:54.627Z,3.78
2023-03-14T23:36:24.452Z,6.90
2023-03-14T23:38:59.928Z,5.45
2023-03-14T23:41:28.774Z,5.15
2023-03-14T23:43:58.976Z,4.00
2023-03-14T23:46:29.832Z,5.75
2023-03-14T23:48:58.735Z,5.57
2023-03-14T23:51:28.534Z,7.90
2023-03-14T23:53:57.997Z,10.57
2023-03-14T23:56:26.739Z,1.60
2023-03-14T23:58:55.392Z,10.77
